Time;durP1;ratioP1;P1;durP2;ratioP2;P2;SDS_P1;SDS_P2;PMS_P1;PMS_P2;Temp;Humidity;BMP_temperature;BMP_pressure;BME280_temperature;BME280_humidity;BME280_pressure;Samples;Min_cycle;Max_cycle;Signal;HPM_P1;HPM_P2
2023/10/10 00:01:17;;;;;;;1999.90;999.90;;;13.60;92.80;;;;;;5048693;28;20044;-73
2023/10/10 00:03:45;;;;;;;1999.90;999.90;;;13.60;92.60;;;;;;5046573;28;20128;-72
2023/10/10 00:06:14;;;;;;;1999.90;999.90;;;13.60;92.60;;;;;;5055474;28;20048;-72
2023/10/10 00:08:50;;;;;;;1999.90;999.90;;;13.50;92.60;;;;;;5050875;28;20033;-72
2023/10/10 00:11:19;;;;;;;1999.90;999.90;;;13.30;92.80;;;;;;5051377;28;20128;-72
2023/10/10 00:13:46;;;;;;;1999.90;999.90;;;13.30;93.00;;;;;;5048372;28;20078;-72
2023/10/10 00:21:43;;;;;;;1999.90;999.90;;;12.90;93.90;;;;;;5050002;28;20032;-73
2023/10/10 00:24:12;;;;;;;1999.90;999.90;;;12.90;93.90;;;;;;5048444;28;20037;-73
2023/10/10 00:26:43;;;;;;;1999.90;999.90;;;12.80;94.10;;;;;;5052120;28;20041;-72
2023/10/10 00:29:11;;;;;;;1999.90;999.90;;;12.80;94.20;;;;;;5057338;28;20086;-73
2023/10/10 00:31:38;;;;;;;1999.90;999.90;;;12.70;94.30;;;;;;5044986;28;20066;-73
2023/10/10 00:34:07;;;;;;;1999.90;999.90;;;12.70;94.50;;;;;;5047705;28;20523;-72
2023/10/10 00:36:36;;;;;;;1999.90;999.90;;;12.70;94.50;;;;;;5055041;28;20032;-72
2023/10/10 00:44:17;;;;;;;1999.90;999.90;;;12.60;94.50;;;;;;5050343;28;20059;-72
2023/10/10 00:46:47;;;;;;;1999.90;999.90;;;12.50;94.70;;;;;;5053767;28;20067;-72
2023/10/10 00:49:16;;;;;;;1999.90;999.90;;;12.50;94.60;;;;;;5046122;28;20514;-72
2023/10/10 00:51:46;;;;;;;1999.90;999.90;;;12.40;94.70;;;;;;5047517;28;20047;-73
2023/10/10 00:56:54;;;;;;;1999.90;999.90;;;12.30;94.90;;;;;;5054202;28;20033;-73
2023/10/10 00:59:27;;;;;;;1999.90;999.90;;;12.30;94.90;;;;;;5050361;28;20076;-72
2023/10/10 01:01:53;;;;;;;1999.90;999.90;;;12.30;95.00;;;;;;5052576;28;20052;-72
2023/10/10 01:04:28;;;;;;;1999.90;999.90;;;12.30;95.00;;;;;;5054321;28;20059;-72
2023/10/10 01:06:55;;;;;;;1999.90;999.90;;;12.20;95.10;;;;;;5050737;28;20430;-72
2023/10/10 01:09:33;;;;;;;1999.90;999.90;;;12.20;95.20;;;;;;5047004;28;20394;-72
2023/10/10 01:11:59;;;;;;;1999.90;999.90;;;12.20;95.20;;;;;;5054041;28;20036;-73
2023/10/10 01:14:28;;;;;;;1999.90;999.90;;;12.10;95.20;;;;;;5054330;28;20406;-73
2023/10/10 01:16:57;;;;;;;1999.90;999.90;;;12.00;95.30;;;;;;5051763;28;20042;-73
2023/10/10 01:19:28;;;;;;;1999.90;999.90;;;12.00;95.40;;;;;;5052094;28;20036;-72
2023/10/10 01:22:03;;;;;;;;;;;12.00;95.60;;;;;;5050669;28;20039;-72
2023/10/10 01:24:32;;;;;;;1999.90;999.90;;;12.00;95.70;;;;;;5053556;28;19923;-72
2023/10/10 01:27:14;;;;;;;1999.90;999.90;;;11.90;95.80;;;;;;5052734;28;20037;-73
2023/10/10 01:29:50;;;;;;;1999.90;999.90;;;11.90;95.80;;;;;;5049994;28;20037;-73
2023/10/10 01:32:17;;;;;;;1999.90;999.90;;;11.90;96.00;;;;;;5049215;28;20098;-72
2023/10/10 01:34:44;;;;;;;1999.90;999.90;;;11.90;96.20;;;;;;5049588;28;20083;-73
2023/10/10 01:37:22;;;;;;;1999.90;999.90;;;12.00;96.30;;;;;;5047083;28;20055;-72
2023/10/10 01:40:16;;;;;;;1999.90;999.90;;;12.00;96.40;;;;;;5052659;28;20234;-72
2023/10/10 01:42:51;;;;;;;1999.90;999.90;;;12.00;96.50;;;;;;5053223;28;20033;-72
2023/10/10 01:45:19;;;;;;;1999.90;999.90;;;11.90;96.70;;;;;;5047490;28;20024;-72
2023/10/10 01:47:56;;;;;;;1999.90;999.90;;;11.90;96.60;;;;;;5050118;28;20798;-72
2023/10/10 01:50:30;;;;;;;1999.90;999.90;;;11.80;96.50;;;;;;5048947;28;20493;-73
2023/10/10 01:52:57;;;;;;;1999.90;999.90;;;11.80;96.60;;;;;;5052487;28;20100;-72
2023/10/10 01:55:25;;;;;;;1999.90;999.90;;;11.80;96.70;;;;;;5054669;28;20566;-72
2023/10/10 01:57:52;;;;;;;1999.90;999.90;;;11.60;96.70;;;;;;5049743;28;20025;-73
2023/10/10 02:02:50;;;;;;;1999.90;999.90;;;11.60;96.70;;;;;;5052588;28;20090;-72
2023/10/10 02:06:01;;;;;;;1999.90;999.90;;;11.60;96.80;;;;;;5052516;28;20033;-72
2023/10/10 02:08:09;;;;;;;1999.90;999.90;;;11.60;97.10;;;;;;5048581;28;20090;-73
2023/10/10 02:10:36;;;;;;;1999.90;999.90;;;11.60;97.00;;;;;;5050636;28;20037;-73
2023/10/10 02:13:06;;;;;;;1999.90;999.90;;;11.60;97.00;;;;;;5057705;28;20127;-73
2023/10/10 02:15:34;;;;;;;1999.90;999.90;;;11.60;97.10;;;;;;5048102;28;20040;-72
2023/10/10 02:18:13;;;;;;;1999.90;999.90;;;11.50;97.10;;;;;;5041510;28;20033;-73
2023/10/10 02:25:55;;;;;;;1999.90;999.90;;;11.60;97.50;;;;;;5054146;28;20118;-73
2023/10/10 02:28:27;;;;;;;1999.90;999.90;;;11.60;97.50;;;;;;5053849;28;20487;-73
2023/10/10 02:30:53;;;;;;;1999.90;999.90;;;11.60;97.60;;;;;;5054281;28;20048;-73
2023/10/10 02:35:54;;;;;;;1999.90;999.90;;;11.60;97.70;;;;;;5052940;28;20747;-73
2023/10/10 02:38:32;;;;;;;1999.90;999.90;;;11.60;97.70;;;;;;5046191;28;20579;-73
2023/10/10 02:44:09;;;;;;;1999.90;999.90;;;11.70;98.00;;;;;;5048517;28;20037;-70
2023/10/10 02:46:38;;;;;;;1999.90;999.90;;;11.70;97.80;;;;;;5047318;28;20044;-73
2023/10/10 02:49:13;;;;;;;1999.90;999.90;;;11.70;97.90;;;;;;5049180;28;20029;-73
2023/10/10 02:51:43;;;;;;;1999.90;999.90;;;11.60;98.00;;;;;;5050343;28;20135;-73
2023/10/10 02:59:50;;;;;;;1999.90;999.90;;;11.50;97.90;;;;;;5049510;28;20611;-73
2023/10/10 03:02:22;;;;;;;1999.90;999.90;;;11.50;98.00;;;;;;5049823;28;20025;-73
2023/10/10 03:07:28;;;;;;;1999.90;999.90;;;11.40;97.80;;;;;;5050338;28;20123;-72
2023/10/10 03:12:43;;;;;;;1999.90;999.90;;;11.40;98.00;;;;;;5058503;28;20078;-72
2023/10/10 03:15:14;;;;;;;1999.90;999.90;;;11.40;98.10;;;;;;5056180;28;20090;-73
2023/10/10 03:17:48;;;;;;;1999.90;999.90;;;11.40;98.00;;;;;;5046019;28;20029;-73
2023/10/10 03:20:25;;;;;;;1999.90;999.90;;;11.40;98.10;;;;;;5047590;28;20514;-73
2023/10/10 03:23:43;;;;;;;1999.90;999.90;;;11.40;98.10;;;;;;5052828;28;20081;-73
2023/10/10 03:25:52;;;;;;;1999.90;999.90;;;11.40;98.10;;;;;;5042802;28;20080;-73
2023/10/10 03:31:46;;;;;;;1999.90;999.90;;;11.30;98.20;;;;;;5050403;28;20043;-73
2023/10/10 05:25:13;;;;;;;1999.90;999.90;;;10.70;99.20;;;;;;5049993;28;20563;-75
2023/10/10 05:27:42;;;;;;;1999.90;999.90;;;10.80;99.50;;;;;;5048171;28;20037;-76
2023/10/10 05:30:17;;;;;;;1999.90;999.90;;;10.80;99.50;;;;;;5047706;28;20041;-77
2023/10/10 05:32:54;;;;;;;1999.90;999.90;;;10.70;99.30;;;;;;5049857;28;20034;-76
2023/10/10 05:35:20;;;;;;;1999.90;999.90;;;10.60;99.40;;;;;;5053773;28;20029;-75
2023/10/10 05:37:47;;;;;;;1999.90;999.90;;;10.70;99.70;;;;;;5050761;28;20048;-88
2023/10/10 05:40:13;;;;;;;1999.90;999.90;;;10.80;99.70;;;;;;5053728;28;20029;-86
2023/10/10 05:42:39;;;;;;;1999.90;999.90;;;10.80;99.70;;;;;;5033990;28;20747;-78
2023/10/10 05:45:08;;;;;;;1999.90;999.90;;;10.80;99.80;;;;;;5052159;28;20040;-80
2023/10/10 05:47:35;;;;;;;1999.90;999.90;;;10.80;99.70;;;;;;5044378;28;20534;-77
2023/10/10 05:50:01;;;;;;;1999.90;999.90;;;10.90;99.90;;;;;;5050173;28;20416;-77
2023/10/10 05:52:28;;;;;;;1999.90;999.90;;;11.00;99.80;;;;;;5049723;28;20047;-83
2023/10/10 05:54:54;;;;;;;1999.90;999.90;;;11.00;99.70;;;;;;5049235;28;20029;-77
2023/10/10 05:57:20;;;;;;;1999.90;999.90;;;11.10;99.70;;;;;;5049881;28;20029;-81
2023/10/10 05:59:45;;;;;;;1999.90;999.90;;;11.20;99.60;;;;;;5048546;28;20083;-79
2023/10/10 06:02:12;;;;;;;1999.90;999.90;;;11.20;99.50;;;;;;5046160;28;20029;-77
2023/10/10 06:04:39;;;;;;;1999.90;999.90;;;11.30;99.40;;;;;;5050247;28;20491;-78
2023/10/10 06:07:05;;;;;;;1999.90;999.90;;;11.30;99.30;;;;;;5041634;28;20047;-78
2023/10/10 06:09:34;;;;;;;1999.90;999.90;;;11.30;99.20;;;;;;5049989;28;20033;-77
2023/10/10 06:12:04;;;;;;;1999.90;999.90;;;11.40;99.20;;;;;;5047967;28;20045;-80
2023/10/10 06:14:31;;;;;;;1999.90;999.90;;;11.50;99.20;;;;;;5042118;28;20033;-79
2023/10/10 06:16:57;;;;;;;1999.90;999.90;;;11.50;99.10;;;;;;5047970;28;20024;-80
2023/10/10 06:19:22;;;;;;;1999.90;999.90;;;11.60;99.10;;;;;;5046094;28;20720;-81
2023/10/10 06:21:48;;;;;;;1999.90;999.90;;;11.70;99.00;;;;;;5051892;28;20040;-78
2023/10/10 06:24:14;;;;;;;1999.90;999.90;;;11.70;98.90;;;;;;5045977;28;20037;-83
2023/10/10 06:26:45;;;;;;;1999.90;999.90;;;11.80;98.90;;;;;;5048835;28;20037;-82
2023/10/10 06:29:12;;;;;;;1999.90;999.90;;;11.80;98.80;;;;;;5051394;28;20478;-79
2023/10/10 06:31:43;;;;;;;1999.90;999.90;;;11.80;98.80;;;;;;5046339;28;20396;-79
2023/10/10 06:34:19;;;;;;;;;;;11.90;98.80;;;;;;5050104;28;20074;-78
2023/10/10 06:36:49;;;;;;;1999.90;999.90;;;12.00;98.80;;;;;;5045696;28;19912;-77
2023/10/10 06:41:47;;;;;;;1999.90;999.90;;;12.20;98.60;;;;;;5049301;28;20475;-79
2023/10/10 06:44:13;;;;;;;1999.90;999.90;;;12.30;98.60;;;;;;5049998;28;20029;-77
2023/10/10 06:46:40;;;;;;;1999.90;999.90;;;12.40;98.40;;;;;;5054379;28;20032;-76
2023/10/10 06:49:07;;;;;;;1999.90;999.90;;;12.40;98.30;;;;;;5048008;28;20056;-75
2023/10/10 06:51:41;;;;;;;1999.90;999.90;;;12.50;98.30;;;;;;5051691;28;20043;-76
2023/10/10 06:54:27;;;;;;;1999.90;999.90;;;12.60;98.20;;;;;;5048250;28;20503;-85
2023/10/10 06:59:27;;;;;;;1999.90;999.90;;;12.80;97.80;;;;;;5047291;28;20045;-74
2023/10/10 07:01:59;;;;;;;1999.90;999.90;;;12.90;97.70;;;;;;5042862;28;20033;-75
2023/10/10 07:04:27;;;;;;;1999.90;999.90;;;13.00;97.50;;;;;;5049288;28;20025;-75
2023/10/10 07:06:54;;;;;;;1999.90;999.90;;;13.10;97.40;;;;;;5046231;28;20064;-77
2023/10/10 07:09:29;;;;;;;1999.90;999.90;;;13.20;97.50;;;;;;5052710;28;20029;-76
2023/10/10 07:12:09;;;;;;;1999.90;999.90;;;13.30;97.40;;;;;;5048476;28;20028;-77
2023/10/10 07:14:47;;;;;;;1999.90;999.90;;;13.40;97.30;;;;;;5052557;28;20036;-75
2023/10/10 07:17:13;;;;;;;1999.90;999.90;;;13.50;97.10;;;;;;5058599;28;20033;-74
2023/10/10 07:22:36;;;;;;;1999.90;999.90;;;13.80;96.40;;;;;;5055638;28;20033;-75
2023/10/10 07:25:07;;;;;;;1999.90;999.90;;;14.00;96.20;;;;;;5054355;28;20056;-77
2023/10/10 07:27:40;;;;;;;1999.90;999.90;;;14.10;96.00;;;;;;5052910;28;20072;-76
2023/10/10 07:30:19;;;;;;;1999.90;999.90;;;14.20;95.50;;;;;;5052866;28;20086;-76
2023/10/10 07:32:50;;;;;;;1999.90;999.90;;;14.20;94.90;;;;;;5058680;28;20039;-76
2023/10/10 07:35:16;;;;;;;;;;;14.20;94.70;;;;;;5055554;28;20109;-78
2023/10/10 07:37:45;;;;;;;1999.90;999.90;;;14.30;94.60;;;;;;5054982;28;19919;-77
2023/10/10 07:42:49;;;;;;;1999.90;999.90;;;14.30;94.20;;;;;;5050655;28;20043;-77
2023/10/10 07:45:15;;;;;;;1999.90;999.90;;;14.30;93.80;;;;;;5058275;28;20110;-76
2023/10/10 07:50:26;;;;;;;1999.90;999.90;;;14.50;93.80;;;;;;5062291;28;20047;-75
2023/10/10 07:52:52;;;;;;;1999.90;999.90;;;14.50;93.40;;;;;;5056392;28;20041;-75
2023/10/10 07:55:22;;;;;;;1999.90;999.90;;;14.60;93.20;;;;;;5060258;28;20025;-77
2023/10/10 07:57:59;;;;;;;1999.90;999.90;;;14.70;93.10;;;;;;5054473;28;20024;-76
2023/10/10 08:00:44;;;;;;;1999.90;999.90;;;14.90;93.30;;;;;;5053982;28;20125;-75
2023/10/10 08:03:19;;;;;;;1999.90;999.90;;;15.00;92.60;;;;;;5053070;28;20035;-76
2023/10/10 08:05:50;;;;;;;1999.90;999.90;;;15.20;92.40;;;;;;5046449;28;20021;-74
2023/10/10 08:08:20;;;;;;;1999.90;999.90;;;15.30;91.70;;;;;;5055721;28;20433;-75
2023/10/10 08:10:51;;;;;;;1999.90;999.90;;;15.40;91.50;;;;;;5049407;28;20084;-74
2023/10/10 08:13:18;;;;;;;1999.90;999.90;;;15.40;91.00;;;;;;5054107;28;20044;-74
2023/10/10 08:16:01;;;;;;;1999.90;999.90;;;15.60;90.70;;;;;;5053860;28;20458;-76
2023/10/10 08:21:12;;;;;;;1999.90;999.90;;;15.80;90.00;;;;;;5052268;28;20029;-75
2023/10/10 08:23:46;;;;;;;1999.90;999.90;;;16.00;90.20;;;;;;5053838;28;20077;-75
2023/10/10 08:26:19;;;;;;;1999.90;999.90;;;16.20;89.30;;;;;;5054126;28;20506;-76
2023/10/10 08:28:49;;;;;;;1999.90;999.90;;;16.40;87.90;;;;;;5050233;28;20107;-77
2023/10/10 08:31:15;;;;;;;1999.90;999.90;;;16.60;86.90;;;;;;5051933;28;20041;-77
2023/10/10 08:33:46;;;;;;;1999.90;999.90;;;16.70;86.40;;;;;;5052682;28;20043;-77
2023/10/10 08:36:12;;;;;;;;;;;16.80;84.70;;;;;;5053222;28;20032;-78
2023/10/10 08:38:42;;;;;;;1999.90;999.90;;;17.00;84.60;;;;;;5053821;28;19920;-79
2023/10/10 08:41:08;;;;;;;1999.90;999.90;;;17.20;83.40;;;;;;5052366;28;20021;-78
2023/10/10 08:43:39;;;;;;;1999.90;999.90;;;17.30;82.30;;;;;;5055177;28;20631;-78
2023/10/10 08:46:09;;;;;;;1999.90;999.90;;;17.50;81.50;;;;;;5051587;28;20078;-77
2023/10/10 08:48:36;;;;;;;1999.90;999.90;;;17.60;81.40;;;;;;5056087;28;20029;-77
2023/10/10 08:51:04;;;;;;;1999.90;999.90;;;17.50;81.90;;;;;;5053044;28;20086;-73
2023/10/10 08:53:38;;;;;;;1999.90;999.90;;;17.50;80.90;;;;;;5049076;28;20119;-73
2023/10/10 08:56:04;;;;;;;1999.90;999.90;;;17.70;81.20;;;;;;5032960;28;20026;-72
2023/10/10 08:58:33;;;;;;;1999.90;999.90;;;17.80;82.00;;;;;;5054407;28;20395;-73
2023/10/10 09:01:02;;;;;;;1999.90;999.90;;;18.00;80.90;;;;;;5052113;28;20040;-73
2023/10/10 09:03:28;;;;;;;1999.90;999.90;;;18.20;79.10;;;;;;5049576;28;20054;-75
2023/10/10 09:05:55;;;;;;;1999.90;999.90;;;18.20;79.30;;;;;;5051232;28;20033;-72
2023/10/10 09:08:26;;;;;;;1999.90;999.90;;;17.90;79.80;;;;;;5054010;28;20029;-73
2023/10/10 09:10:56;;;;;;;1999.90;999.90;;;18.20;79.50;;;;;;5049676;28;20061;-75
2023/10/10 09:13:25;;;;;;;1999.90;999.90;;;18.30;78.00;;;;;;5049144;28;20029;-73
2023/10/10 09:15:54;;;;;;;1999.90;999.90;;;18.40;79.30;;;;;;5048693;28;20058;-73
2023/10/10 09:18:23;;;;;;;1999.90;999.90;;;18.20;78.80;;;;;;5053394;28;20024;-73
2023/10/10 09:20:50;;;;;;;1999.90;999.90;;;18.30;78.90;;;;;;5036566;28;20028;-72
2023/10/10 09:23:24;;;;;;;1999.90;999.90;;;18.60;79.40;;;;;;5050853;28;20037;-71
2023/10/10 09:26:18;;;;;;;1999.90;999.90;;;18.80;77.70;;;;;;5053902;28;20090;-74
2023/10/10 09:28:55;;;;;;;1999.90;999.90;;;19.00;77.50;;;;;;5050719;28;20037;-72
2023/10/10 09:31:26;;;;;;;1999.90;999.90;;;19.20;75.60;;;;;;5054046;28;20052;-72
2023/10/10 09:33:55;;;;;;;1999.90;999.90;;;19.10;75.30;;;;;;5047784;28;20047;-72
2023/10/10 09:36:26;;;;;;;1999.90;999.90;;;19.30;76.00;;;;;;5051730;28;20121;-73
2023/10/10 09:38:57;;;;;;;1999.90;999.90;;;19.20;73.40;;;;;;5046758;28;20715;-72
2023/10/10 09:44:36;;;;;;;1999.90;999.90;;;19.20;75.10;;;;;;5048090;28;20033;-73
2023/10/10 09:55:47;;;;;;;1999.90;999.90;;;20.30;72.60;;;;;;5053683;28;20407;-75
2023/10/10 09:58:01;;;;;;;1999.90;999.90;;;20.10;70.80;;;;;;5049212;28;20572;-75
2023/10/10 10:06:18;;;;;;;1999.90;999.90;;;20.50;71.50;;;;;;5044666;28;20121;-75
2023/10/10 10:09:09;;;;;;;1999.90;999.90;;;20.80;70.50;;;;;;5040521;28;20082;-75
2023/10/10 10:11:51;;;;;;;1999.90;999.90;;;20.90;68.20;;;;;;5049229;28;20028;-72
2023/10/10 10:14:39;;;;;;;1999.90;999.90;;;21.10;68.20;;;;;;5051337;28;20086;-72
2023/10/10 10:17:18;;;;;;;1999.90;999.90;;;21.20;68.10;;;;;;5046546;28;20118;-72
2023/10/10 10:19:45;;;;;;;1999.90;999.90;;;21.40;67.70;;;;;;5046269;28;20036;-72
2023/10/10 10:22:18;;;;;;;1999.90;999.90;;;21.40;66.10;;;;;;5043809;28;20025;-73
2023/10/10 10:24:47;;;;;;;1999.90;999.90;;;21.30;64.90;;;;;;5051123;28;20032;-73
2023/10/10 10:27:35;;;;;;;1999.90;999.90;;;21.40;65.40;;;;;;5053639;28;20044;-72
2023/10/10 10:32:58;;;;;;;1999.90;999.90;;;21.60;65.20;;;;;;5048263;28;20036;-72
2023/10/10 10:35:59;;;;;;;1999.90;999.90;;;21.90;67.50;;;;;;5053430;28;20036;-72
2023/10/10 10:38:25;;;;;;;1999.90;999.90;;;21.90;64.40;;;;;;5045679;28;20056;-72
2023/10/10 10:41:04;;;;;;;1999.90;999.90;;;21.90;63.40;;;;;;5048240;28;20052;-72
2023/10/10 10:43:42;;;;;;;1999.90;999.90;;;22.00;64.80;;;;;;5053971;28;20088;-72
2023/10/10 10:46:27;;;;;;;1999.90;999.90;;;22.00;62.20;;;;;;5049770;28;20065;-72
2023/10/10 10:49:05;;;;;;;1999.90;999.90;;;22.30;63.30;;;;;;5045388;28;20033;-72
2023/10/10 10:51:41;;;;;;;1999.90;999.90;;;22.40;62.00;;;;;;5050229;28;20028;-71
2023/10/10 10:54:08;;;;;;;1999.90;999.90;;;22.40;62.40;;;;;;5044171;28;20043;-73
2023/10/10 10:59:12;;;;;;;1999.90;999.90;;;22.60;59.80;;;;;;5048470;28;20124;-73
2023/10/10 11:01:51;;;;;;;1999.90;999.90;;;22.60;60.10;;;;;;5054113;28;20391;-74
2023/10/10 11:04:26;;;;;;;1999.90;999.90;;;22.60;60.00;;;;;;5047038;28;20044;-74
2023/10/10 11:06:59;;;;;;;1999.90;999.90;;;22.70;60.50;;;;;;5043826;28;20383;-73
2023/10/10 11:09:32;;;;;;;1999.90;999.90;;;22.80;60.50;;;;;;5050537;28;20024;-73
2023/10/10 11:12:03;;;;;;;1999.90;999.90;;;23.00;60.30;;;;;;5051851;28;20038;-73
2023/10/10 11:14:34;;;;;;;1999.90;999.90;;;23.00;61.50;;;;;;5051614;28;20256;-74
2023/10/10 11:17:00;;;;;;;1999.90;999.90;;;23.10;61.70;;;;;;5048867;28;20026;-73
2023/10/10 11:22:01;;;;;;;1999.90;999.90;;;23.20;59.90;;;;;;5049133;28;20029;-73
2023/10/10 11:24:29;;;;;;;1999.90;999.90;;;23.40;59.50;;;;;;5045792;28;20040;-73
2023/10/10 11:29:50;;;;;;;1999.90;999.90;;;22.80;57.80;;;;;;5052440;28;20037;-71
2023/10/10 11:32:24;;;;;;;1999.90;999.90;;;22.90;58.50;;;;;;5033584;28;20051;-71
2023/10/10 11:34:52;;;;;;;1999.90;999.90;;;23.00;61.50;;;;;;5049790;28;20132;-71
2023/10/10 11:37:32;;;;;;;1999.90;999.90;;;23.20;60.00;;;;;;5046295;28;20029;-71
2023/10/10 11:42:55;;;;;;;1999.90;999.90;;;22.70;60.50;;;;;;5046692;28;20036;-71
2023/10/10 11:45:26;;;;;;;1999.90;999.90;;;23.10;60.30;;;;;;5062741;28;20043;-71
2023/10/10 11:47:53;;;;;;;1999.90;999.90;;;23.10;60.90;;;;;;5047881;28;20107;-71
2023/10/10 11:50:29;;;;;;;1999.90;999.90;;;23.20;58.30;;;;;;5041317;28;20025;-74
2023/10/10 11:53:01;;;;;;;1999.90;999.90;;;23.30;59.70;;;;;;5052270;28;20025;-74
2023/10/10 11:55:27;;;;;;;1999.90;999.90;;;23.50;61.10;;;;;;5048232;28;20523;-74
2023/10/10 11:58:06;;;;;;;1999.90;999.90;;;23.40;60.20;;;;;;5047261;28;20475;-75
2023/10/10 12:01:05;;;;;;;1999.90;999.90;;;23.10;58.90;;;;;;5056487;28;20064;-74
2023/10/10 12:06:14;;;;;;;1999.90;999.90;;;24.70;57.60;;;;;;5051470;28;20068;-73
2023/10/10 12:08:50;;;;;;;1999.90;999.90;;;25.20;53.90;;;;;;5048820;28;20318;-73
2023/10/10 12:11:20;;;;;;;1999.90;999.90;;;25.90;52.70;;;;;;5049737;28;20055;-73
2023/10/10 12:13:48;;;;;;;1999.90;999.90;;;25.60;52.70;;;;;;5050656;28;20029;-76
2023/10/10 12:16:15;;;;;;;1999.90;999.90;;;26.10;52.00;;;;;;5055195;28;20651;-76
2023/10/10 12:18:45;;;;;;;1999.90;999.90;;;26.00;49.30;;;;;;5047428;28;20087;-76
2023/10/10 12:21:19;;;;;;;1999.90;999.90;;;25.30;48.80;;;;;;5048602;28;20100;-76
2023/10/10 12:23:48;;;;;;;1999.90;999.90;;;25.30;52.60;;;;;;5051907;28;20403;-76
2023/10/10 12:26:14;;;;;;;1999.90;999.90;;;25.90;49.40;;;;;;5050540;28;20025;-76
2023/10/10 12:28:40;;;;;;;1999.90;999.90;;;26.00;49.30;;;;;;5049022;28;20082;-77
2023/10/10 12:31:08;;;;;;;1999.90;999.90;;;26.30;49.10;;;;;;5055893;28;20051;-77
2023/10/10 12:33:37;;;;;;;1999.90;999.90;;;26.50;46.90;;;;;;5050616;28;20049;-77
2023/10/10 12:36:09;;;;;;;1999.90;999.90;;;26.40;46.90;;;;;;5047840;28;20605;-77
2023/10/10 12:38:35;;;;;;;1999.90;999.90;;;26.20;45.80;;;;;;5048785;28;20068;-77
2023/10/10 12:41:01;;;;;;;1999.90;999.90;;;26.10;46.50;;;;;;5052652;28;20510;-79
2023/10/10 12:43:26;;;;;;;1999.90;999.90;;;26.50;46.10;;;;;;5048517;28;20047;-80
2023/10/10 12:45:54;;;;;;;1999.90;999.90;;;26.50;47.00;;;;;;5056052;28;20061;-80
2023/10/10 12:48:20;;;;;;;1999.90;999.90;;;26.50;47.60;;;;;;5046935;28;20037;-75
2023/10/10 12:50:47;;;;;;;1999.90;999.90;;;26.40;48.00;;;;;;5047388;28;20029;-78
2023/10/10 12:53:19;;;;;;;1999.90;999.90;;;27.20;45.90;;;;;;5049247;28;20037;-76
2023/10/10 12:55:48;;;;;;;1999.90;999.90;;;27.00;46.00;;;;;;5050305;28;20074;-77
2023/10/10 12:58:20;;;;;;;1999.90;999.90;;;27.50;43.80;;;;;;5053017;28;20044;-77
2023/10/10 13:00:52;;;;;;;1999.90;999.90;;;27.60;44.40;;;;;;5052580;28;20123;-77
2023/10/10 13:03:29;;;;;;;1999.90;999.90;;;27.50;41.50;;;;;;5051091;28;20487;-77
2023/10/10 13:06:00;;;;;;;1999.90;999.90;;;27.40;44.90;;;;;;5043991;28;20179;-77
2023/10/10 13:08:38;;;;;;;1999.90;999.90;;;28.00;42.50;;;;;;5053096;28;20040;-77
2023/10/10 13:11:20;;;;;;;1999.90;999.90;;;28.20;40.30;;;;;;5049152;28;20025;-77
2023/10/10 13:13:51;;;;;;;1999.90;999.90;;;28.60;40.70;;;;;;5051014;28;20067;-76
2023/10/10 13:19:06;;;;;;;1999.90;999.90;;;28.60;41.40;;;;;;5044531;28;20044;-76
2023/10/10 13:21:35;;;;;;;1999.90;999.90;;;28.10;37.80;;;;;;5047119;28;21550;-76
2023/10/10 13:24:01;;;;;;;1999.90;999.90;;;27.20;39.00;;;;;;5049979;28;20155;-77
2023/10/10 13:26:31;;;;;;;1999.90;999.90;;;27.30;42.20;;;;;;5049218;28;20049;-75
2023/10/10 13:28:57;;;;;;;1999.90;999.90;;;27.40;40.70;;;;;;5052652;28;20028;-76
2023/10/10 13:31:24;;;;;;;1999.90;999.90;;;27.30;40.20;;;;;;5046844;28;20128;-76
2023/10/10 13:33:50;;;;;;;1999.90;999.90;;;27.10;40.60;;;;;;5045849;28;20666;-76
2023/10/10 13:36:16;;;;;;;1999.90;999.90;;;27.00;40.50;;;;;;5048060;28;20029;-76
2023/10/10 13:38:47;;;;;;;1999.90;999.90;;;26.60;42.10;;;;;;5045769;28;20037;-77
2023/10/10 13:41:18;;;;;;;1999.90;999.90;;;26.50;42.50;;;;;;5045302;28;20561;-76
2023/10/10 13:43:47;;;;;;;1999.90;999.90;;;26.40;43.10;;;;;;5045287;28;20041;-76
2023/10/10 13:46:16;;;;;;;1999.90;999.90;;;26.40;43.30;;;;;;5059225;28;20035;-77
2023/10/10 13:48:42;;;;;;;1999.90;999.90;;;26.90;41.40;;;;;;5050087;28;20622;-76
2023/10/10 13:51:09;;;;;;;1999.90;999.90;;;27.40;41.30;;;;;;5049945;28;20115;-76
2023/10/10 13:53:35;;;;;;;1999.90;999.90;;;27.30;39.80;;;;;;5049450;28;20036;-76
2023/10/10 13:56:04;;;;;;;1999.90;999.90;;;27.20;40.70;;;;;;5045751;28;20021;-76
2023/10/10 13:58:30;;;;;;;1999.90;999.90;;;27.20;37.90;;;;;;5048666;28;20033;-77
2023/10/10 14:01:13;;;;;;;1999.90;999.90;;;27.90;36.60;;;;;;5049592;28;20025;-76
2023/10/10 14:03:46;;;;;;;1999.90;999.90;;;28.00;35.10;;;;;;5050149;28;20044;-77
2023/10/10 14:06:26;;;;;;;1999.90;999.90;;;28.60;35.80;;;;;;5048951;28;20025;-76
2023/10/10 14:08:52;;;;;;;1999.90;999.90;;;28.90;34.00;;;;;;5048446;28;20100;-77
2023/10/10 14:11:22;;;;;;;1999.90;999.90;;;29.60;34.70;;;;;;5047979;28;20071;-77
2023/10/10 14:13:49;;;;;;;1999.90;999.90;;;29.70;34.40;;;;;;5046144;28;20115;-77
2023/10/10 14:16:15;;;;;;;1999.90;999.90;;;29.10;30.10;;;;;;5053838;28;20581;-76
2023/10/10 14:18:49;;;;;;;1999.90;999.90;;;29.70;29.90;;;;;;5044391;28;20072;-76
2023/10/10 14:21:24;;;;;;;1999.90;999.90;;;29.70;30.00;;;;;;5041073;28;20494;-76
2023/10/10 14:23:59;;;;;;;1999.90;999.90;;;29.80;30.90;;;;;;5046749;28;20028;-76
2023/10/10 14:26:30;;;;;;;1999.90;999.90;;;30.20;31.20;;;;;;5047733;28;20052;-76
2023/10/10 14:28:57;;;;;;;1999.90;999.90;;;29.90;30.50;;;;;;5047985;28;20553;-76
2023/10/10 14:31:31;;;;;;;1999.90;999.90;;;29.30;30.70;;;;;;5047199;28;20083;-76
2023/10/10 14:34:00;;;;;;;1999.90;999.90;;;29.40;29.90;;;;;;5045682;28;20048;-76
2023/10/10 14:36:29;;;;;;;1999.90;999.90;;;29.50;30.90;;;;;;5049079;28;20045;-76
2023/10/10 14:38:57;;;;;;;1999.90;999.90;;;29.30;30.00;;;;;;5048321;28;20025;-76
2023/10/10 14:41:24;;;;;;;1999.90;999.90;;;29.20;29.90;;;;;;5049352;28;20028;-77
2023/10/10 14:43:52;;;;;;;1999.90;999.90;;;29.40;30.60;;;;;;5048466;28;20078;-76
2023/10/10 14:46:31;;;;;;;1999.90;999.90;;;29.20;29.90;;;;;;5045530;28;20526;-76
2023/10/10 14:49:05;;;;;;;;;;;28.00;32.20;;;;;;5048083;28;20021;-76
2023/10/10 14:51:35;;;;;;;1999.90;999.90;;;27.70;31.70;;;;;;5050333;28;20081;-76
2023/10/10 14:54:12;;;;;;;1999.90;999.90;;;27.80;31.10;;;;;;5041657;28;20029;-76
2023/10/10 14:56:45;;;;;;;1999.90;999.90;;;27.60;33.60;;;;;;5042973;28;20060;-76
2023/10/10 14:59:17;;;;;;;1999.90;999.90;;;27.40;32.70;;;;;;5046730;28;20025;-75
2023/10/10 15:01:47;;;;;;;1999.90;999.90;;;27.60;32.50;;;;;;5045142;28;20033;-75
2023/10/10 15:04:17;;;;;;;1999.90;999.90;;;27.40;31.40;;;;;;5041431;28;20083;-75
2023/10/10 15:06:43;;;;;;;1999.90;999.90;;;27.10;31.70;;;;;;5038846;28;20033;-75
2023/10/10 15:09:13;;;;;;;1999.90;999.90;;;27.20;32.30;;;;;;5039554;28;20532;-76
2023/10/10 15:11:42;;;;;;;;;;;27.50;31.90;;;;;;5037070;28;20703;-77
2023/10/10 15:14:09;;;;;;;1999.90;999.90;;;27.30;32.80;;;;;;5046812;28;19997;-75
2023/10/10 15:16:37;;;;;;;1999.90;999.90;;;26.70;34.30;;;;;;5048156;28;20068;-75
2023/10/10 15:19:06;;;;;;;1999.90;999.90;;;26.60;34.20;;;;;;5057687;28;20087;-75
2023/10/10 15:21:36;;;;;;;1999.90;999.90;;;26.20;35.50;;;;;;5040888;28;20451;-76
2023/10/10 15:24:11;;;;;;;1999.90;999.90;;;26.20;36.50;;;;;;5043485;28;20029;-76
2023/10/10 15:26:37;;;;;;;1999.90;999.90;;;25.60;37.90;;;;;;5046180;28;20032;-75
2023/10/10 15:29:04;;;;;;;1999.90;999.90;;;25.60;38.90;;;;;;5040896;28;20052;-74
2023/10/10 15:31:31;;;;;;;1999.90;999.90;;;24.90;42.20;;;;;;5046684;28;20045;-75
2023/10/10 15:33:57;;;;;;;1999.90;999.90;;;24.50;43.20;;;;;;5041803;28;20462;-75
2023/10/10 15:36:30;;;;;;;1999.90;999.90;;;23.90;45.10;;;;;;5052635;28;20029;-74
2023/10/10 15:38:57;;;;;;;1999.90;999.90;;;23.60;47.10;;;;;;5055832;28;20029;-74
2023/10/10 15:41:25;;;;;;;1999.90;999.90;;;23.50;47.40;;;;;;5052406;28;20033;-74
2023/10/10 15:43:52;;;;;;;1999.90;999.90;;;23.40;48.50;;;;;;5055978;28;20126;-72